Time;durP1;ratioP1;P1;durP2;ratioP2;P2;SDS_P1;SDS_P2;PMS_P1;PMS_P2;Temp;Humidity;BMP_temperature;BMP_pressure;BME280_temperature;BME280_humidity;BME280_pressure;Samples;Min_cycle;Max_cycle;Signal;HPM_P1;HPM_P2
2021/09/01 00:01:39;;;;;;;5.1;3.8;;;;;;;;;;;;;
2021/09/01 00:04:04;;;;;;;5.2;4.3;;;;;;;;;;;;;
2021/09/01 00:06:59;;;;;;;6.1;3.9;;;;;;;;;;;;;
2021/09/01 00:09:24;;;;;;;5.1;3.7;;;;;;;;;;;;;
2021/09/01 00:11:50;;;;;;;6.1;4.2;;;;;;;;;;;;;
2021/09/01 00:14:15;;;;;;;5.6;4.3;;;;;;;;;;;;;
2021/09/01 00:16:40;;;;;;;6;3.8;;;;;;;;;;;;;
2021/09/01 00:19:05;;;;;;;6.6;4.1;;;;;;;;;;;;;
2021/09/01 00:21:30;;;;;;;4.8;3.6;;;;;;;;;;;;;
2021/09/01 00:23:55;;;;;;;4.3;3.6;;;;;;;;;;;;;
2021/09/01 00:26:21;;;;;;;5.3;4;;;;;;;;;;;;;
2021/09/01 00:28:46;;;;;;;4.5;3.4;;;;;;;;;;;;;
2021/09/01 00:31:11;;;;;;;4.5;3.5;;;;;;;;;;;;;
2021/09/01 00:33:36;;;;;;;5.4;4.1;;;;;;;;;;;;;
2021/09/01 00:36:01;;;;;;;4;3.2;;;;;;;;;;;;;
2021/09/01 00:38:27;;;;;;;4.1;3.5;;;;;;;;;;;;;
2021/09/01 00:41:07;;;;;;;4.5;3.8;;;;;;;;;;;;;
2021/09/01 00:43:17;;;;;;;4.3;3.8;;;;;;;;;;;;;
2021/09/01 00:45:42;;;;;;;4.2;3.8;;;;;;;;;;;;;
2021/09/01 00:48:07;;;;;;;4.8;3.6;;;;;;;;;;;;;
2021/09/01 00:50:32;;;;;;;3.7;3.1;;;;;;;;;;;;;
2021/09/01 00:52:57;;;;;;;4.6;3.6;;;;;;;;;;;;;
2021/09/01 00:55:23;;;;;;;4.5;3.1;;;;;;;;;;;;;
2021/09/01 00:57:48;;;;;;;4.7;3.5;;;;;;;;;;;;;
2021/09/01 01:00:20;;;;;;;4.3;3.5;;;;;;;;;;;;;
2021/09/01 01:02:38;;;;;;;4;3.4;;;;;;;;;;;;;
2021/09/01 01:05:04;;;;;;;4.2;3.2;;;;;;;;;;;;;
2021/09/01 01:07:29;;;;;;;5.3;3.6;;;;;;;;;;;;;
2021/09/01 01:09:54;;;;;;;3.5;3;;;;;;;;;;;;;
2021/09/01 01:12:19;;;;;;;3.7;3.2;;;;;;;;;;;;;
2021/09/01 01:14:44;;;;;;;3.8;3.2;;;;;;;;;;;;;
2021/09/01 01:17:09;;;;;;;5;3.6;;;;;;;;;;;;;
2021/09/01 01:19:34;;;;;;;5.6;3.5;;;;;;;;;;;;;
2021/09/01 01:22:00;;;;;;;4.9;3.5;;;;;;;;;;;;;
2021/09/01 01:24:25;;;;;;;4.6;3.5;;;;;;;;;;;;;
2021/09/01 01:26:50;;;;;;;5.6;3.8;;;;;;;;;;;;;
2021/09/01 01:29:15;;;;;;;4.2;3.1;;;;;;;;;;;;;
2021/09/01 01:31:40;;;;;;;4.5;3.1;;;;;;;;;;;;;
2021/09/01 01:34:05;;;;;;;4.6;3.3;;;;;;;;;;;;;
2021/09/01 01:36:30;;;;;;;4.7;3.6;;;;;;;;;;;;;
2021/09/01 01:38:55;;;;;;;4.1;3.2;;;;;;;;;;;;;
2021/09/01 01:41:21;;;;;;;5.6;3.5;;;;;;;;;;;;;
2021/09/01 01:43:46;;;;;;;3.9;3.1;;;;;;;;;;;;;
2021/09/01 01:46:11;;;;;;;3.6;3.1;;;;;;;;;;;;;
2021/09/01 01:48:36;;;;;;;3.9;3.1;;;;;;;;;;;;;
2021/09/01 01:51:01;;;;;;;3.5;2.9;;;;;;;;;;;;;
2021/09/01 01:53:26;;;;;;;4.4;3.1;;;;;;;;;;;;;
2021/09/01 01:55:51;;;;;;;2.9;2.5;;;;;;;;;;;;;
2021/09/01 01:58:16;;;;;;;3.3;2.7;;;;;;;;;;;;;
2021/09/01 02:00:42;;;;;;;2.8;2.6;;;;;;;;;;;;;
2021/09/01 02:03:07;;;;;;;3;2.7;;;;;;;;;;;;;
2021/09/01 02:05:32;;;;;;;3.9;3;;;;;;;;;;;;;
2021/09/01 02:07:57;;;;;;;3.2;2.8;;;;;;;;;;;;;
2021/09/01 02:10:22;;;;;;;4.4;2.7;;;;;;;;;;;;;
2021/09/01 02:12:47;;;;;;;3.8;2.9;;;;;;;;;;;;;
2021/09/01 02:15:12;;;;;;;3.1;2.8;;;;;;;;;;;;;
2021/09/01 02:17:37;;;;;;;4.8;2.8;;;;;;;;;;;;;
2021/09/01 02:20:03;;;;;;;4;2.8;;;;;;;;;;;;;
2021/09/01 02:22:28;;;;;;;3.3;2.7;;;;;;;;;;;;;
2021/09/01 02:24:53;;;;;;;6.2;3.3;;;;;;;;;;;;;
2021/09/01 02:27:18;;;;;;;3.3;2.9;;;;;;;;;;;;;
2021/09/01 02:29:43;;;;;;;3.6;2.9;;;;;;;;;;;;;
2021/09/01 02:32:08;;;;;;;3.3;3;;;;;;;;;;;;;
2021/09/01 02:34:33;;;;;;;3.7;3;;;;;;;;;;;;;
2021/09/01 02:36:58;;;;;;;3.9;3.2;;;;;;;;;;;;;
2021/09/01 02:39:24;;;;;;;4.5;3.5;;;;;;;;;;;;;
2021/09/01 02:41:49;;;;;;;5.6;3.5;;;;;;;;;;;;;
2021/09/01 02:44:14;;;;;;;5.3;3.6;;;;;;;;;;;;;
2021/09/01 02:46:39;;;;;;;5.7;3.2;;;;;;;;;;;;;
2021/09/01 02:49:04;;;;;;;4.5;3.2;;;;;;;;;;;;;
2021/09/01 02:51:29;;;;;;;4.6;3.2;;;;;;;;;;;;;
2021/09/01 02:53:54;;;;;;;4.7;3.3;;;;;;;;;;;;;
2021/09/01 02:56:20;;;;;;;3.9;3.2;;;;;;;;;;;;;
2021/09/01 02:58:45;;;;;;;4.4;3.4;;;;;;;;;;;;;
2021/09/01 03:01:10;;;;;;;3.8;3.1;;;;;;;;;;;;;
2021/09/01 03:03:35;;;;;;;3.8;3;;;;;;;;;;;;;
2021/09/01 03:06:00;;;;;;;4.6;3;;;;;;;;;;;;;
2021/09/01 03:08:25;;;;;;;4.7;3.1;;;;;;;;;;;;;
2021/09/01 03:10:50;;;;;;;3.4;3;;;;;;;;;;;;;
2021/09/01 03:13:15;;;;;;;4;2.8;;;;;;;;;;;;;
2021/09/01 03:15:40;;;;;;;4.5;3.2;;;;;;;;;;;;;
2021/09/01 03:18:06;;;;;;;3.9;3.1;;;;;;;;;;;;;
2021/09/01 03:20:31;;;;;;;3;2.7;;;;;;;;;;;;;
2021/09/01 03:22:56;;;;;;;4.1;3;;;;;;;;;;;;;
2021/09/01 03:25:21;;;;;;;4.7;3.3;;;;;;;;;;;;;
2021/09/01 03:27:46;;;;;;;3.4;2.6;;;;;;;;;;;;;
2021/09/01 03:30:11;;;;;;;4.3;3.4;;;;;;;;;;;;;
2021/09/01 03:32:36;;;;;;;4.3;2.9;;;;;;;;;;;;;
2021/09/01 03:35:01;;;;;;;4.9;3.5;;;;;;;;;;;;;
2021/09/01 03:37:26;;;;;;;5.1;4;;;;;;;;;;;;;
2021/09/01 03:39:51;;;;;;;5.1;3.8;;;;;;;;;;;;;
2021/09/01 03:42:17;;;;;;;5.1;3.2;;;;;;;;;;;;;
2021/09/01 03:44:42;;;;;;;4.7;3.2;;;;;;;;;;;;;
2021/09/01 03:47:07;;;;;;;4.4;3.4;;;;;;;;;;;;;
2021/09/01 03:49:32;;;;;;;6;3.6;;;;;;;;;;;;;
2021/09/01 03:51:57;;;;;;;4.3;3.5;;;;;;;;;;;;;
2021/09/01 03:54:22;;;;;;;4.7;3.5;;;;;;;;;;;;;
2021/09/01 03:56:47;;;;;;;4;3.3;;;;;;;;;;;;;
2021/09/01 03:59:12;;;;;;;5.7;3.5;;;;;;;;;;;;;
2021/09/01 04:02:31;;;;;;;4.2;3.8;;;;;;;10.99;98.10156;946.0457;;;;
2021/09/01 04:04:56;;;;;;;4.7;4;;;;;;;11.01;97.97949;946.0504;;;;
2021/09/01 04:07:22;;;;;;;5.2;3.9;;;;;;;11.01;97.54492;946.0699;;;;
2021/09/01 04:09:47;;;;;;;4.3;3.6;;;;;;;11.07;96.73438;946.0602;;;;
2021/09/01 04:12:13;;;;;;;4.6;3.7;;;;;;;10.99;96.67285;946.0934;;;;
2021/09/01 04:14:38;;;;;;;4;3.1;;;;;;;10.94;96.92383;946.0246;;;;
2021/09/01 04:17:03;;;;;;;3.7;3.4;;;;;;;10.68;98.25977;946.0549;;;;
2021/09/01 04:19:29;;;;;;;4.4;3.3;;;;;;;10.63;98.8418;946.0131;;;;
2021/09/01 04:22:18;;;;;;;4.9;3.6;;;;;;;10.66;98.48242;946.0298;;;;
2021/09/01 04:24:43;;;;;;;6;3.8;;;;;;;10.71;97.71777;946.0945;;;;
2021/09/01 04:27:09;;;;;;;5.5;3.6;;;;;;;10.78;97.33496;946.0856;;;;
2021/09/01 04:29:35;;;;;;;4;3.5;;;;;;;10.79;97.54004;946.1353;;;;
2021/09/01 04:32:00;;;;;;;4.1;3.3;;;;;;;10.77;97.37598;946.0974;;;;
2021/09/01 04:34:27;;;;;;;4;3.6;;;;;;;10.8;97.14453;946.0909;;;;
2021/09/01 04:36:52;;;;;;;3.7;3;;;;;;;10.79;97.32324;946.0539;;;;
2021/09/01 04:39:17;;;;;;;3.1;2.8;;;;;;;10.75;97.69238;946.0953;;;;
2021/09/01 04:41:44;;;;;;;3.5;3;;;;;;;10.75;97.20117;946.1233;;;;
2021/09/01 04:44:09;;;;;;;4.1;3.1;;;;;;;10.71;96.98535;946.1096;;;;
2021/09/01 04:46:34;;;;;;;3.9;3.2;;;;;;;10.75;96.7207;946.1256;;;;
2021/09/01 04:49:00;;;;;;;4;3.2;;;;;;;10.79;96.43164;946.0793;;;;
2021/09/01 04:51:25;;;;;;;3.4;3;;;;;;;10.78;96.1582;946.1247;;;;
2021/09/01 04:53:50;;;;;;;3.1;2.8;;;;;;;10.73;96.36523;946.1459;;;;
2021/09/01 04:56:16;;;;;;;4.2;3;;;;;;;10.72;96.41602;946.1616;;;;
2021/09/01 04:58:41;;;;;;;3.4;2.9;;;;;;;10.71;96.24219;946.1828;;;;
2021/09/01 05:01:06;;;;;;;4.4;3.2;;;;;;;10.71;96.36816;946.1716;;;;
2021/09/01 05:03:32;;;;;;;3.9;3;;;;;;;10.68;96.30664;946.1528;;;;
2021/09/01 05:05:57;;;;;;;4.3;3.1;;;;;;;10.67;96.23438;946.0928;;;;
2021/09/01 05:08:23;;;;;;;4;3.3;;;;;;;10.71;96.05078;946.139;;;;
2021/09/01 05:10:48;;;;;;;5.9;3.6;;;;;;;10.67;96.28027;946.1024;;;;
2021/09/01 05:13:15;;;;;;;4.5;3.4;;;;;;;10.68;95.95313;946.007;;;;
2021/09/01 05:15:40;;;;;;;4;3.1;;;;;;;10.6;96.44727;946.0583;;;;
2021/09/01 05:18:06;;;;;;;4.4;3.3;;;;;;;10.57;96.63281;945.9796;;;;
2021/09/01 05:20:31;;;;;;;4.2;3.4;;;;;;;10.51;96.84961;946.0469;;;;
2021/09/01 05:22:56;;;;;;;4.6;3.4;;;;;;;10.56;96.38184;946.0472;;;;
2021/09/01 05:27:46;;;;;;;5.2;3.6;;;;;;;10.69;96.18164;946.1569;;;;
2021/09/01 05:30:11;;;;;;;4.5;3.3;;;;;;;10.73;95.56348;946.157;;;;
2021/09/01 05:32:36;;;;;;;3.4;3;;;;;;;10.65;95.31934;946.0686;;;;
2021/09/01 05:35:02;;;;;;;4.4;3;;;;;;;10.59;96.0127;946.1514;;;;
2021/09/01 05:37:27;;;;;;;3.7;3.3;;;;;;;10.72;96.00488;946.1353;;;;
2021/09/01 05:39:52;;;;;;;4.1;3.5;;;;;;;10.92;96.23145;946.092;;;;
2021/09/01 05:42:23;;;;;;;4.9;3.5;;;;;;;11.51;94.76172;946.1426;;;;
2021/09/01 05:44:48;;;;;;;3;2.5;;;;;;;12.96;87.06543;946.1517;;;;
2021/09/01 05:47:13;;;;;;;3.4;2.3;;;;;;;14.26;80.7041;946.2061;;;;
2021/09/01 05:49:38;;;;;;;2.4;2.2;;;;;;;14.81;76.37891;946.1602;;;;
2021/09/01 05:52:03;;;;;;;3.3;2.3;;;;;;;15.59;73.24512;946.1771;;;;
2021/09/01 05:54:29;;;;;;;3;2.1;;;;;;;16.61;69.21289;946.12;;;;
2021/09/01 05:56:54;;;;;;;2.2;2;;;;;;;16.49;68.80078;946.0903;;;;
2021/09/01 05:59:53;;;;;;;2.2;2;;;;;;;16.19;68.75488;946.0223;;;;
2021/09/01 06:02:18;;;;;;;2.3;2;;;;;;;17.01;67.56055;946.1225;;;;
2021/09/01 06:04:43;;;;;;;2.1;1.8;;;;;;;16.84;67.9873;946.1116;;;;
2021/09/01 06:07:08;;;;;;;2.6;2.3;;;;;;;16.6;69.88379;946.1039;;;;
2021/09/01 06:09:33;;;;;;;2.7;2.2;;;;;;;17.98;65.21289;946.0989;;;;
2021/09/01 06:12:46;;;;;;;2;1.8;;;;;;;19.32;60.05371;946.1166;;;;
2021/09/01 06:15:32;;;;;;;2.1;1.9;;;;;;;20.38;55.77246;945.9799;;;;
2021/09/01 06:17:59;;;;;;;2;1.8;;;;;;;20.51;54.15332;945.9581;;;;
2021/09/01 06:20:22;;;;;;;3.2;1.9;;;;;;;21.77;51.1084;945.907;;;;
2021/09/01 06:22:47;;;;;;;1.7;1.6;;;;;;;21.6;50.98438;945.9144;;;;
2021/09/01 06:25:12;;;;;;;2.3;1.9;;;;;;;22.57;48.7832;945.912;;;;
2021/09/01 06:27:37;;;;;;;2.2;1.9;;;;;;;21.61;49.43945;945.8987;;;;
2021/09/01 06:30:04;;;;;;;1.6;1.5;;;;;;;21.06;51.59961;945.8992;;;;
2021/09/01 06:32:29;;;;;;;2.2;2;;;;;;;21.91;51.06543;945.8533;;;;
2021/09/01 06:34:55;;;;;;;2.1;1.6;;;;;;;22.72;47.69629;945.8152;;;;
2021/09/01 06:37:20;;;;;;;2.7;1.9;;;;;;;23.66;46.65527;945.829;;;;
2021/09/01 06:39:45;;;;;;;2.2;1.9;;;;;;;24.29;44.57813;945.825;;;;
2021/09/01 06:42:10;;;;;;;2.2;1.6;;;;;;;23.11;46.06934;945.8831;;;;
2021/09/01 06:44:58;;;;;;;2.1;1.8;;;;;;;21.4;50.78516;945.8996;;;;
2021/09/01 06:47:23;;;;;;;1.9;1.6;;;;;;;21.98;49.75;945.868;;;;
2021/09/01 06:49:48;;;;;;;1.8;1.7;;;;;;;22.09;47.88672;945.9316;;;;
2021/09/01 06:52:13;;;;;;;2.3;1.6;;;;;;;21.87;50.37012;945.9523;;;;
2021/09/01 06:54:38;;;;;;;2;1.8;;;;;;;21.76;50.27734;945.9907;;;;
2021/09/01 06:57:04;;;;;;;2.5;1.6;;;;;;;21.29;51.05371;945.9966;;;;
2021/09/01 06:59:29;;;;;;;2;1.7;;;;;;;22.97;48.39258;946.0244;;;;
2021/09/01 07:01:54;;;;;;;2;1.6;;;;;;;23.64;46.61914;945.984;;;;
2021/09/01 07:04:19;;;;;;;2.6;1.7;;;;;;;24.92;45.16113;946.0234;;;;
2021/09/01 07:11:34;;;;;;;3.9;1.8;;;;;;;25.62;41.47266;946.031;;;;
2021/09/01 07:17:39;;;;;;;1.7;1.6;;;;;;;27.56;38.12891;946.0339;;;;
2021/09/01 07:20:04;;;;;;;1.9;1.7;;;;;;;28.49;37.12598;945.993;;;;
2021/09/01 07:22:29;;;;;;;1.8;1.5;;;;;;;27.45;39.06836;946.0609;;;;
2021/09/01 07:24:55;;;;;;;2.2;1.5;;;;;;;27.1;38.83691;946.1195;;;;
2021/09/01 07:27:20;;;;;;;2.1;1.7;;;;;;;26.74;40.0498;946.0667;;;;
2021/09/01 07:29:46;;;;;;;2.7;2;;;;;;;25.06;41.58594;946.0943;;;;
2021/09/01 07:32:11;;;;;;;2.2;1.7;;;;;;;25.68;41.91602;946.0939;;;;
2021/09/01 07:34:36;;;;;;;1.9;1.6;;;;;;;27.37;37.80371;946.1576;;;;
2021/09/01 07:37:01;;;;;;;1.8;1.6;;;;;;;25.66;41.5957;946.1277;;;;
2021/09/01 07:39:26;;;;;;;2.1;1.9;;;;;;;24.62;46.25;946.1451;;;;
2021/09/01 07:41:51;;;;;;;2.2;2;;;;;;;24.4;45.37891;946.142;;;;
2021/09/01 07:44:16;;;;;;;2;1.8;;;;;;;25.04;43.32031;946.178;;;;
2021/09/01 07:46:42;;;;;;;2;1.8;;;;;;;24.49;43.80762;946.1526;;;;
2021/09/01 07:49:07;;;;;;;2.5;1.7;;;;;;;25.2;44.1377;946.1548;;;;
2021/09/01 07:51:32;;;;;;;2.2;1.8;;;;;;;24.71;45.38477;946.2594;;;;
2021/09/01 07:53:57;;;;;;;2.2;1.9;;;;;;;25;43.18555;946.2158;;;;
2021/09/01 07:56:22;;;;;;;2.3;1.8;;;;;;;26.33;42.04785;946.2316;;;;
2021/09/01 07:58:47;;;;;;;2.8;2;;;;;;;25.23;43.1377;946.2868;;;;
2021/09/01 08:01:12;;;;;;;1.8;1.6;;;;;;;25.91;40.10645;946.2584;;;;
2021/09/01 08:03:37;;;;;;;2.1;1.9;;;;;;;25.41;41.50098;946.3131;;;;
2021/09/01 08:06:04;;;;;;;2.7;2.2;;;;;;;26.73;39.40918;946.3269;;;;
2021/09/01 08:08:28;;;;;;;1.8;1.7;;;;;;;25.09;44.28027;946.3215;;;;
2021/09/01 08:10:53;;;;;;;3.9;2.5;;;;;;;26.84;39.55957;946.3245;;;;
2021/09/01 08:13:18;;;;;;;2;1.8;;;;;;;27.86;37.2627;946.3514;;;;
2021/09/01 08:15:44;;;;;;;1.8;1.7;;;;;;;28.48;35.18652;946.3368;;;;
2021/09/01 08:18:08;;;;;;;2;1.8;;;;;;;29.1;34.63965;946.3066;;;;
2021/09/01 08:21:04;;;;;;;2.1;1.8;;;;;;;28.99;34.97559;946.3306;;;;
2021/09/01 08:23:29;;;;;;;2;1.8;;;;;;;28.54;34.59668;946.3161;;;;
2021/09/01 08:25:55;;;;;;;2.2;2;;;;;;;28.77;34.68555;946.2576;;;;
2021/09/01 08:28:20;;;;;;;2.1;1.8;;;;;;;30.02;34.1377;946.262;;;;
2021/09/01 08:30:46;;;;;;;2.1;1.9;;;;;;;28.75;34.89844;946.2684;;;;
2021/09/01 08:33:11;;;;;;;1.8;1.7;;;;;;;29.22;35.14941;946.2477;;;;
2021/09/01 08:35:36;;;;;;;2.2;1.7;;;;;;;27.87;39.49707;946.2805;;;;
2021/09/01 08:38:23;;;;;;;2;1.8;;;;;;;28.84;36.35645;946.2402;;;;
2021/09/01 08:40:50;;;;;;;2.1;1.9;;;;;;;26.97;38.93164;946.2527;;;;
2021/09/01 08:43:15;;;;;;;1.9;1.7;;;;;;;29.56;35.12793;946.2371;;;;
2021/09/01 08:45:40;;;;;;;2;1.8;;;;;;;29.31;35.25195;946.2614;;;;
2021/09/01 08:48:06;;;;;;;2.1;1.9;;;;;;;29.24;35.06738;946.242;;;;
2021/09/01 08:50:31;;;;;;;2.3;2.1;;;;;;;29.46;34.39258;946.2859;;;;
2021/09/01 08:52:57;;;;;;;2.2;2;;;;;;;27.75;37.74121;946.3094;;;;
2021/09/01 08:55:22;;;;;;;3.7;2;;;;;;;28.65;36.74609;946.3759;;;;
2021/09/01 08:57:48;;;;;;;3;2.1;;;;;;;27.72;38.87891;946.3744;;;;
2021/09/01 09:00:13;;;;;;;2;1.8;;;;;;;26.11;42.78418;946.3242;;;;
2021/09/01 09:02:38;;;;;;;2.3;1.9;;;;;;;26.19;41.21875;946.3397;;;;
2021/09/01 09:05:03;;;;;;;2.8;1.9;;;;;;;25.36;45.44141;946.2971;;;;
2021/09/01 09:07:29;;;;;;;2.9;1.9;;;;;;;24.34;46.75098;946.3158;;;;
2021/09/01 09:09:54;;;;;;;1.8;1.7;;;;;;;26.25;42.57324;946.2971;;;;
2021/09/01 09:12:28;;;;;;;2.3;2.1;;;;;;;25.19;46.83984;946.2739;;;;
2021/09/01 09:14:53;;;;;;;2.3;2;;;;;;;23.41;49.93457;946.3083;;;;
2021/09/01 09:17:19;;;;;;;2.8;2.2;;;;;;;23.11;49.9834;946.267;;;;
2021/09/01 09:19:44;;;;;;;2.2;1.8;;;;;;;23.66;48.11426;946.3047;;;;
2021/09/01 09:22:09;;;;;;;2.6;2.1;;;;;;;22.56;53.51074;946.2004;;;;
2021/09/01 09:24:37;;;;;;;2.4;2;;;;;;;22.4;52.22559;946.173;;;;
2021/09/01 09:27:01;;;;;;;2.5;2;;;;;;;21.53;56.64258;946.1721;;;;
2021/09/01 09:29:26;;;;;;;2.4;2;;;;;;;23.14;51.81934;946.1504;;;;
2021/09/01 09:31:52;;;;;;;2.1;1.9;;;;;;;21.47;54.59766;946.093;;;;
2021/09/01 09:34:17;;;;;;;2.2;2;;;;;;;21.35;57.55566;945.9914;;;;
2021/09/01 09:36:42;;;;;;;2.5;2.3;;;;;;;21.68;54.84668;946.067;;;;
2021/09/01 09:39:07;;;;;;;2.3;2.1;;;;;;;22.1;54.78125;946.0588;;;;
2021/09/01 09:41:32;;;;;;;2.7;2.2;;;;;;;21.66;58.87402;946.048;;;;
2021/09/01 09:43:58;;;;;;;2.5;2.1;;;;;;;21.33;57.74121;946.037;;;;
2021/09/01 09:46:23;;;;;;;2.8;2.5;;;;;;;20.78;58.24121;946.0154;;;;
2021/09/01 09:48:48;;;;;;;3.8;2.7;;;;;;;20.75;60.39941;945.9892;;;;
2021/09/01 09:51:13;;;;;;;3.4;2.5;;;;;;;20.47;61.37695;946.0211;;;;
2021/09/01 09:53:38;;;;;;;3.7;2.9;;;;;;;19.78;65.74902;946.0478;;;;
2021/09/01 09:56:03;;;;;;;3.2;2.6;;;;;;;20.15;64.2627;945.9986;;;;
2021/09/01 09:58:29;;;;;;;2.9;2.5;;;;;;;20.84;59.34961;945.9797;;;;
2021/09/01 10:00:54;;;;;;;2.9;2.6;;;;;;;20.83;61.75488;945.9727;;;;
2021/09/01 10:03:19;;;;;;;3.1;2.7;;;;;;;20.3;63.12793;945.8825;;;;
2021/09/01 10:05:44;;;;;;;2.6;2.3;;;;;;;20.31;63.44629;945.9252;;;;
2021/09/01 10:08:09;;;;;;;2.9;2.5;;;;;;;20.87;59.46973;945.8903;;;;
2021/09/01 10:10:35;;;;;;;3.8;2.5;;;;;;;20.86;60.7998;945.8807;;;;
2021/09/01 10:13:00;;;;;;;3.9;2.3;;;;;;;21.44;57.8252;945.9153;;;;
2021/09/01 10:15:25;;;;;;;2.8;2.4;;;;;;;21.43;61.81543;945.7997;;;;
2021/09/01 10:17:50;;;;;;;3.7;2.4;;;;;;;21.31;59.12988;945.7767;;;;
2021/09/01 10:20:15;;;;;;;2.5;2.2;;;;;;;21.2;61.75977;945.7783;;;;
2021/09/01 10:22:40;;;;;;;3.3;2.5;;;;;;;20.73;61.13281;945.7985;;;;
2021/09/01 10:25:05;;;;;;;3.1;2.5;;;;;;;21.58;58.25293;945.7237;;;;
2021/09/01 10:27:30;;;;;;;2.5;2.3;;;;;;;21.46;58.33105;945.6848;;;;
2021/09/01 10:29:58;;;;;;;3.6;2.3;;;;;;;22.56;53.68652;945.7434;;;;
2021/09/01 10:32:22;;;;;;;4.2;2.7;;;;;;;22.42;56.45215;945.7496;;;;
2021/09/01 10:34:47;;;;;;;2.6;2.3;;;;;;;21.48;61.24805;945.699;;;;
2021/09/01 10:37:13;;;;;;;3.9;2.6;;;;;;;22.28;57.17188;945.6647;;;;
2021/09/01 10:39:39;;;;;;;2.5;2.3;;;;;;;22.59;56.29785;945.7416;;;;
2021/09/01 10:42:04;;;;;;;2.6;2.4;;;;;;;23.71;52.07324;945.6509;;;;
2021/09/01 10:44:29;;;;;;;2.5;2.3;;;;;;;23.52;52.05273;945.6696;;;;
2021/09/01 10:46:54;;;;;;;3.2;2.3;;;;;;;24.23;49.07227;945.6326;;;;
2021/09/01 10:49:19;;;;;;;2.6;2.2;;;;;;;24.73;49.03223;945.6041;;;;
2021/09/01 10:51:52;;;;;;;2.6;2.3;;;;;;;24.64;47.01953;945.6772;;;;
2021/09/01 10:54:17;;;;;;;2.3;2.1;;;;;;;25.76;44.62988;945.6161;;;;
2021/09/01 10:56:42;;;;;;;2.6;2.4;;;;;;;25.55;45.60254;945.6361;;;;
2021/09/01 10:59:07;;;;;;;2.4;2.2;;;;;;;25.38;47.07324;945.6119;;;;
2021/09/01 11:01:33;;;;;;;2.2;2;;;;;;;25.16;47.74609;945.6643;;;;
2021/09/01 11:04:02;;;;;;;2.2;2;;;;;;;24.14;49.2627;945.6253;;;;
2021/09/01 11:06:23;;;;;;;2.7;2.2;;;;;;;23.57;52.48145;945.6166;;;;
2021/09/01 11:08:48;;;;;;;2.8;2;;;;;;;23.88;50.68164;945.6421;;;;
2021/09/01 11:11:13;;;;;;;2.3;2.1;;;;;;;24.82;48.47656;945.7022;;;;
2021/09/01 11:13:38;;;;;;;2.6;2;;;;;;;24.84;48.24219;945.6522;;;;
2021/09/01 11:16:03;;;;;;;2.4;2.2;;;;;;;24.69;50.10156;945.6569;;;;
2021/09/01 11:18:28;;;;;;;2.5;2.3;;;;;;;24.13;50.96875;945.6021;;;;
2021/09/01 11:21:05;;;;;;;2.8;2.4;;;;;;;23.55;53.79492;945.6161;;;;
2021/09/01 11:23:30;;;;;;;2.8;2.3;;;;;;;25.08;46.09668;945.6777;;;;
2021/09/01 11:25:55;;;;;;;2.4;2.2;;;;;;;25.29;47.32422;945.712;;;;
2021/09/01 11:28:20;;;;;;;4;2.3;;;;;;;25.51;47.83105;945.632;;;;
2021/09/01 11:30:45;;;;;;;3.1;2.4;;;;;;;24.91;47.84863;945.7141;;;;
2021/09/01 11:33:10;;;;;;;2.7;2.3;;;;;;;25.29;47.09863;945.6789;;;;
2021/09/01 11:35:35;;;;;;;3.1;2.6;;;;;;;26.19;44.11816;945.683;;;;
2021/09/01 11:38:02;;;;;;;2.9;2.5;;;;;;;24.33;48.9873;945.7;;;;
2021/09/01 11:40:26;;;;;;;3.5;2.7;;;;;;;25.15;46.64746;945.7064;;;;
2021/09/01 11:42:52;;;;;;;2.5;2.1;;;;;;;26.39;43.65137;945.7224;;;;
2021/09/01 11:45:17;;;;;;;2.9;2.6;;;;;;;25.91;46.58496;945.702;;;;
2021/09/01 11:47:43;;;;;;;2.6;2.2;;;;;;;26.21;45.16113;945.7247;;;;
2021/09/01 11:50:07;;;;;;;3;2.4;;;;;;;27.15;41.56738;945.6848;;;;
2021/09/01 11:53:43;;;;;;;3.8;2.6;;;;;;;26.77;42.64648;945.6486;;;;
2021/09/01 11:56:09;;;;;;;3.8;3.1;;;;;;;27.89;40.37793;945.6279;;;;
2021/09/01 11:58:34;;;;;;;3.5;2.4;;;;;;;26;45.93066;945.7182;;;;
2021/09/01 12:01:00;;;;;;;2.7;2.3;;;;;;;25.66;46.32227;945.6914;;;;
2021/09/01 12:03:24;;;;;;;3.5;2.3;;;;;;;26.69;43.52637;945.6561;;;;
2021/09/01 12:05:50;;;;;;;3.3;2.6;;;;;;;27.7;39.80273;945.673;;;;
2021/09/01 12:08:16;;;;;;;2.6;2;;;;;;;29.04;36.39746;945.6211;;;;
2021/09/01 12:10:41;;;;;;;2.9;2.2;;;;;;;29.93;35.44238;945.6381;;;;
2021/09/01 12:13:06;;;;;;;2.5;2.1;;;;;;;29.16;37.69336;945.628;;;;
2021/09/01 12:15:31;;;;;;;2.9;2.3;;;;;;;29.05;38.33887;945.5632;;;;
2021/09/01 12:18:33;;;;;;;2.4;2.2;;;;;;;30.23;35.53809;945.5244;;;;
2021/09/01 12:20:58;;;;;;;2.3;2.1;;;;;;;29.91;36.37305;945.4625;;;;
2021/09/01 12:23:23;;;;;;;2.8;2.3;;;;;;;30.12;35.1709;945.4385;;;;
2021/09/01 12:26:06;;;;;;;3.3;2.2;;;;;;;29.32;36.63477;945.3953;;;;
2021/09/01 12:28:31;;;;;;;2.5;2;;;;;;;28.69;37.77246;945.3823;;;;
2021/09/01 12:30:56;;;;;;;3.2;2.2;;;;;;;28.58;37.67969;945.3546;;;;
2021/09/01 12:33:21;;;;;;;2.6;2.1;;;;;;;29.17;36.36035;945.2921;;;;
2021/09/01 12:35:46;;;;;;;2.7;2.1;;;;;;;27.24;42.5957;945.3286;;;;
2021/09/01 12:38:11;;;;;;;2.8;1.9;;;;;;;28.05;38.52734;945.277;;;;
2021/09/01 12:40:36;;;;;;;2.9;2.2;;;;;;;28.41;39.94922;945.3107;;;;
2021/09/01 12:43:05;;;;;;;2.5;2.3;;;;;;;27.27;40.80762;945.3298;;;;
2021/09/01 12:45:27;;;;;;;3.2;2.2;;;;;;;27.41;40.34668;945.3571;;;;
2021/09/01 12:47:51;;;;;;;2.3;2;;;;;;;28.03;39.53516;945.3398;;;;
2021/09/01 12:50:16;;;;;;;2.9;2.4;;;;;;;27.21;40.83887;945.3492;;;;
2021/09/01 12:52:43;;;;;;;2.8;2.1;;;;;;;27.23;41.06543;945.3528;;;;
2021/09/01 12:55:08;;;;;;;2.3;1.8;;;;;;;28.01;39.11719;945.349;;;;
2021/09/01 12:57:33;;;;;;;2.4;2.1;;;;;;;27.88;39.17676;945.4083;;;;
2021/09/01 12:59:58;;;;;;;2.2;2;;;;;;;27.16;39.99121;945.4008;;;;
2021/09/01 13:03:18;;;;;;;3.3;2.3;;;;;;;27.06;40.6582;945.3922;;;;
2021/09/01 13:05:46;;;;;;;2.3;1.9;;;;;;;27.65;39.2168;945.307;;;;
2021/09/01 13:08:10;;;;;;;2.8;2;;;;;;;28.57;38.20215;945.3058;;;;
2021/09/01 13:10:35;;;;;;;2.3;2;;;;;;;27;40.32129;945.2326;;;;
2021/09/01 13:13:00;;;;;;;3.6;2.3;;;;;;;26.18;42.45996;945.2147;;;;
2021/09/01 13:15:25;;;;;;;2.4;2.2;;;;;;;26.86;42.14551;945.2395;;;;
2021/09/01 13:17:51;;;;;;;2.2;1.8;;;;;;;26.68;41.74902;945.3281;;;;
2021/09/01 13:20:16;;;;;;;2.5;2.2;;;;;;;26.61;42.53711;945.3116;;;;
2021/09/01 13:22:41;;;;;;;2.3;2.1;;;;;;;25.37;45.7832;945.2594;;;;
2021/09/01 13:25:06;;;;;;;1.9;1.8;;;;;;;25.58;43.64453;945.2444;;;;
2021/09/01 13:27:31;;;;;;;2.7;2.1;;;;;;;24.87;45.4502;945.278;;;;
2021/09/01 13:29:56;;;;;;;2.1;1.9;;;;;;;24.01;47.24609;945.2597;;;;
2021/09/01 13:32:21;;;;;;;3;2;;;;;;;24.19;46.34766;945.1761;;;;
2021/09/01 13:34:46;;;;;;;2.6;1.9;;;;;;;24.32;46.28906;945.2662;;;;
2021/09/01 13:37:12;;;;;;;2.6;2.2;;;;;;;24.12;47.01074;945.2126;;;;
2021/09/01 13:39:37;;;;;;;2.2;2;;;;;;;24.11;46.97363;945.1577;;;;
2021/09/01 13:42:02;;;;;;;2.7;2.2;;;;;;;24.06;46.72168;945.1788;;;;
2021/09/01 13:44:27;;;;;;;2.2;2;;;;;;;23.85;48.3125;945.1599;;;;
2021/09/01 13:46:53;;;;;;;2.1;1.8;;;;;;;23.4;49.42676;945.2446;;;;
2021/09/01 13:49:18;;;;;;;2.7;2.2;;;;;;;23.06;49.40234;945.1692;;;;
2021/09/01 13:51:43;;;;;;;2.5;2.1;;;;;;;22.79;50.74512;945.144;;;;
2021/09/01 13:54:09;;;;;;;2.6;2.2;;;;;;;22.75;51.05762;945.1516;;;;
2021/09/01 13:56:34;;;;;;;2.8;2.2;;;;;;;22.59;52.22461;945.1013;;;;
2021/09/01 13:58:59;;;;;;;2.9;2.3;;;;;;;22.76;50.54199;945.1912;;;;
2021/09/01 14:01:24;;;;;;;2.4;2;;;;;;;22;53.64258;945.1164;;;;
2021/09/01 14:03:52;;;;;;;3;2.2;;;;;;;21.69;54.84668;945.0826;;;;
2021/09/01 14:06:14;;;;;;;3.4;2.3;;;;;;;21.52;55.59863;945.0003;;;;
2021/09/01 14:08:40;;;;;;;2.8;2.3;;;;;;;21.73;54.3125;945.0859;;;;
2021/09/01 14:11:05;;;;;;;3.1;2.4;;;;;;;22.02;52.8252;944.9927;;;;
2021/09/01 14:13:30;;;;;;;3.1;2.1;;;;;;;21.67;54.69238;944.9412;;;;
2021/09/01 14:15:55;;;;;;;3;2.3;;;;;;;21.9;54.59277;944.8948;;;;
2021/09/01 14:18:20;;;;;;;2.7;2.2;;;;;;;21.9;54.47461;944.8934;;;;
2021/09/01 14:20:45;;;;;;;2.5;2.3;;;;;;;21.79;53.85352;944.8095;;;;
2021/09/01 14:23:10;;;;;;;2.9;2.4;;;;;;;21.62;53.29297;944.827;;;;
2021/09/01 14:25:35;;;;;;;3.4;2.3;;;;;;;21.49;54.22559;944.8186;;;;
2021/09/01 14:28:19;;;;;;;2.7;2.2;;;;;;;21.77;54.66992;944.8855;;;;
2021/09/01 14:30:45;;;;;;;2.4;2;;;;;;;21.43;53.60938;944.8816;;;;
2021/09/01 14:33:10;;;;;;;2.6;2.2;;;;;;;21.36;53.64844;944.8511;;;;
2021/09/01 14:35:36;;;;;;;2.7;2.3;;;;;;;21.21;52.43652;944.8254;;;;
2021/09/01 14:38:01;;;;;;;2.4;2.2;;;;;;;20.67;56.05469;944.8372;;;;
2021/09/01 14:40:26;;;;;;;3.2;2.4;;;;;;;21.03;54.67285;944.7999;;;;
2021/09/01 14:42:51;;;;;;;2.3;2.1;;;;;;;21.23;53.58594;944.7482;;;;
2021/09/01 14:45:22;;;;;;;3.3;2.5;;;;;;;21.22;53.41992;944.7346;;;;
2021/09/01 14:47:47;;;;;;;2.8;2.4;;;;;;;21.38;53.93164;944.7681;;;;
2021/09/01 14:50:12;;;;;;;2.9;2.2;;;;;;;21.27;53.56738;944.7316;;;;
2021/09/01 14:52:37;;;;;;;3;2.4;;;;;;;21.25;53.79883;944.7539;;;;
2021/09/01 14:55:02;;;;;;;2.4;2.2;;;;;;;21.31;53.73535;944.7347;;;;
2021/09/01 14:57:27;;;;;;;3.6;2.4;;;;;;;21;55.63965;944.6948;;;;
2021/09/01 14:59:52;;;;;;;2.5;2.2;;;;;;;20.65;56.19141;944.7244;;;;
2021/09/01 15:02:18;;;;;;;4;2.5;;;;;;;20.7;56.10352;944.6829;;;;
2021/09/01 15:04:43;;;;;;;2.6;2.3;;;;;;;20.66;56.23926;944.6998;;;;
2021/09/01 15:07:08;;;;;;;4.8;2.7;;;;;;;20.79;56.99219;944.6601;;;;
2021/09/01 15:09:33;;;;;;;3;2.4;;;;;;;20.55;58.67871;944.6272;;;;
2021/09/01 15:11:58;;;;;;;2.7;2.2;;;;;;;20.53;56.10645;944.6558;;;;
2021/09/01 15:14:24;;;;;;;3.1;2.6;;;;;;;20.67;55.91406;944.6308;;;;
2021/09/01 15:17:34;;;;;;;2.8;2.3;;;;;;;20.59;56.21875;944.6044;;;;
2021/09/01 15:20:00;;;;;;;2.5;2.2;;;;;;;20.53;53.88672;944.5734;;;;
2021/09/01 15:22:25;;;;;;;2.4;2.1;;;;;;;20.45;54.11133;944.5934;;;;
2021/09/01 15:24:51;;;;;;;2.3;2.1;;;;;;;20.51;53.56934;944.6125;;;;
2021/09/01 15:27:16;;;;;;;2.5;2.3;;;;;;;20.49;54.05762;944.5797;;;;
2021/09/01 15:29:41;;;;;;;3.2;2.2;;;;;;;20.42;54.10645;944.6344;;;;
2021/09/01 15:32:06;;;;;;;3.5;2.5;;;;;;;20.31;53.60352;944.5928;;;;
2021/09/01 15:34:31;;;;;;;3.2;2.5;;;;;;;20.36;54.0293;944.5549;;;;
2021/09/01 15:36:56;;;;;;;2.7;2.3;;;;;;;20.27;55.20898;944.6285;;;;
2021/09/01 15:39:21;;;;;;;3.8;2.1;;;;;;;20.25;53.58301;944.6547;;;;
2021/09/01 15:41:47;;;;;;;3.2;2.3;;;;;;;20.16;54.6582;944.6494;;;;
2021/09/01 15:44:29;;;;;;;3.1;2.3;;;;;;;20.11;55.25977;944.6705;;;;
2021/09/01 15:46:54;;;;;;;2.9;2.5;;;;;;;20.08;55.18555;944.7294;;;;
2021/09/01 15:49:19;;;;;;;2.6;2.2;;;;;;;20.08;54.75391;944.7213;;;;